sensor_id;sensor_type;location;lat;lon;timestamp;P1;durP1;ratioP1;P2;durP2;ratioP2
51921;SDS011;37948;53.260;6.394;2023-03-13T00:01:34;34.85;;;7.22;;
51921;SDS011;37948;53.260;6.394;2023-03-13T00:04:00;26.60;;;5.32;;
51921;SDS011;37948;53.260;6.394;2023-03-13T00:06:28;25.52;;;5.35;;
51921;SDS011;37948;53.260;6.394;2023-03-13T00:08:59;31.00;;;5.72;;
51921;SDS011;37948;53.260;6.394;2023-03-13T00:11:25;23.35;;;4.68;;
51921;SDS011;37948;53.260;6.394;2023-03-13T00:13:55;35.75;;;5.35;;
51921;SDS011;37948;53.260;6.394;2023-03-13T00:16:22;30.35;;;5.55;;
51921;SDS011;37948;53.260;6.394;2023-03-13T00:18:48;31.92;;;6.05;;
51921;SDS011;37948;53.260;6.394;2023-03-13T00:21:16;26.70;;;5.28;;
51921;SDS011;37948;53.260;6.394;2023-03-13T00:23:42;30.98;;;6.10;;
51921;SDS011;37948;53.260;6.394;2023-03-13T00:26:09;30.73;;;5.38;;
51921;SDS011;37948;53.260;6.394;2023-03-13T00:28:40;45.05;;;7.40;;
51921;SDS011;37948;53.260;6.394;2023-03-13T00:31:16;36.15;;;6.82;;
51921;SDS011;37948;53.260;6.394;2023-03-13T00:33:47;33.75;;;5.45;;
51921;SDS011;37948;53.260;6.394;2023-03-13T00:36:25;29.10;;;5.10;;
51921;SDS011;37948;53.260;6.394;2023-03-13T00:38:57;26.55;;;5.85;;
51921;SDS011;37948;53.260;6.394;2023-03-13T00:41:32;29.40;;;5.88;;
51921;SDS011;37948;53.260;6.394;2023-03-13T00:43:59;32.08;;;6.47;;
51921;SDS011;37948;53.260;6.394;2023-03-13T00:46:26;33.80;;;6.50;;
51921;SDS011;37948;53.260;6.394;2023-03-13T00:48:52;35.08;;;6.97;;
51921;SDS011;37948;53.260;6.394;2023-03-13T00:51:18;28.90;;;7.50;;
51921;SDS011;37948;53.260;6.394;2023-03-13T00:53:45;30.65;;;5.93;;
51921;SDS011;37948;53.260;6.394;2023-03-13T00:56:12;32.00;;;6.82;;
51921;SDS011;37948;53.260;6.394;2023-03-13T00:58:39;36.33;;;7.00;;
51921;SDS011;37948;53.260;6.394;2023-03-13T01:01:10;36.65;;;7.93;;
51921;SDS011;37948;53.260;6.394;2023-03-13T01:03:43;36.42;;;7.35;;
51921;SDS011;37948;53.260;6.394;2023-03-13T01:06:11;29.13;;;6.68;;
51921;SDS011;37948;53.260;6.394;2023-03-13T01:08:39;38.85;;;8.15;;
51921;SDS011;37948;53.260;6.394;2023-03-13T01:11:08;31.98;;;7.45;;
51921;SDS011;37948;53.260;6.394;2023-03-13T01:13:36;33.30;;;7.15;;
51921;SDS011;37948;53.260;6.394;2023-03-13T01:18:32;35.35;;;7.82;;
51921;SDS011;37948;53.260;6.394;2023-03-13T01:20:59;36.28;;;7.95;;
51921;SDS011;37948;53.260;6.394;2023-03-13T01:23:25;32.33;;;6.97;;
51921;SDS011;37948;53.260;6.394;2023-03-13T01:25:52;26.27;;;6.90;;
51921;SDS011;37948;53.260;6.394;2023-03-13T01:28:19;33.22;;;7.40;;
51921;SDS011;37948;53.260;6.394;2023-03-13T01:30:44;26.27;;;7.45;;
51921;SDS011;37948;53.260;6.394;2023-03-13T01:33:10;26.83;;;6.05;;
51921;SDS011;37948;53.260;6.394;2023-03-13T01:35:36;32.53;;;7.15;;
51921;SDS011;37948;53.260;6.394;2023-03-13T01:38:01;41.58;;;7.72;;
51921;SDS011;37948;53.260;6.394;2023-03-13T01:40:27;32.78;;;7.00;;
51921;SDS011;37948;53.260;6.394;2023-03-13T01:42:53;38.60;;;7.32;;
51921;SDS011;37948;53.260;6.394;2023-03-13T01:48:14;28.40;;;6.55;;
51921;SDS011;37948;53.260;6.394;2023-03-13T01:50:40;33.17;;;7.13;;
51921;SDS011;37948;53.260;6.394;2023-03-13T01:53:06;38.85;;;7.72;;
51921;SDS011;37948;53.260;6.394;2023-03-13T01:55:32;37.35;;;8.02;;
51921;SDS011;37948;53.260;6.394;2023-03-13T01:57:58;38.60;;;7.60;;
51921;SDS011;37948;53.260;6.394;2023-03-13T02:00:28;39.13;;;7.80;;
51921;SDS011;37948;53.260;6.394;2023-03-13T02:02:57;31.30;;;6.97;;
51921;SDS011;37948;53.260;6.394;2023-03-13T02:05:28;29.75;;;6.18;;
51921;SDS011;37948;53.260;6.394;2023-03-13T02:07:56;31.08;;;6.80;;
51921;SDS011;37948;53.260;6.394;2023-03-13T02:10:28;40.70;;;6.95;;
51921;SDS011;37948;53.260;6.394;2023-03-13T02:12:56;31.77;;;7.00;;
51921;SDS011;37948;53.260;6.394;2023-03-13T02:15:24;25.45;;;7.32;;
51921;SDS011;37948;53.260;6.394;2023-03-13T02:17:51;33.30;;;6.63;;
51921;SDS011;37948;53.260;6.394;2023-03-13T02:20:19;29.85;;;6.90;;
51921;SDS011;37948;53.260;6.394;2023-03-13T02:22:53;27.77;;;6.25;;
51921;SDS011;37948;53.260;6.394;2023-03-13T02:25:34;33.47;;;6.47;;
51921;SDS011;37948;53.260;6.394;2023-03-13T02:28:06;31.80;;;7.43;;
51921;SDS011;37948;53.260;6.394;2023-03-13T02:30:37;26.75;;;7.00;;
51921;SDS011;37948;53.260;6.394;2023-03-13T02:33:05;23.10;;;6.22;;
51921;SDS011;37948;53.260;6.394;2023-03-13T02:35:31;25.05;;;5.88;;
51921;SDS011;37948;53.260;6.394;2023-03-13T02:37:59;18.95;;;5.70;;
51921;SDS011;37948;53.260;6.394;2023-03-13T02:40:36;22.65;;;5.30;;
51921;SDS011;37948;53.260;6.394;2023-03-13T02:43:06;26.55;;;6.20;;
51921;SDS011;37948;53.260;6.394;2023-03-13T02:45:38;25.92;;;5.70;;
51921;SDS011;37948;53.260;6.394;2023-03-13T02:48:03;21.88;;;5.38;;
51921;SDS011;37948;53.260;6.394;2023-03-13T02:50:29;19.33;;;5.20;;
51921;SDS011;37948;53.260;6.394;2023-03-13T02:52:56;19.48;;;5.10;;
51921;SDS011;37948;53.260;6.394;2023-03-13T02:55:28;21.50;;;5.55;;
51921;SDS011;37948;53.260;6.394;2023-03-13T02:57:58;14.20;;;5.10;;
51921;SDS011;37948;53.260;6.394;2023-03-13T03:00:23;17.92;;;5.38;;
51921;SDS011;37948;53.260;6.394;2023-03-13T03:02:51;16.75;;;4.95;;
51921;SDS011;37948;53.260;6.394;2023-03-13T03:05:18;12.52;;;4.35;;
51921;SDS011;37948;53.260;6.394;2023-03-13T03:07:44;13.88;;;4.38;;
51921;SDS011;37948;53.260;6.394;2023-03-13T03:10:10;13.60;;;5.72;;
51921;SDS011;37948;53.260;6.394;2023-03-13T03:12:35;10.43;;;4.47;;
51921;SDS011;37948;53.260;6.394;2023-03-13T03:15:01;11.15;;;4.63;;
51921;SDS011;37948;53.260;6.394;2023-03-13T03:17:29;14.57;;;4.53;;
51921;SDS011;37948;53.260;6.394;2023-03-13T03:19:55;18.52;;;4.95;;
51921;SDS011;37948;53.260;6.394;2023-03-13T03:22:20;11.13;;;4.97;;
51921;SDS011;37948;53.260;6.394;2023-03-13T03:24:46;8.90;;;4.47;;
51921;SDS011;37948;53.260;6.394;2023-03-13T03:27:12;9.80;;;4.00;;
51921;SDS011;37948;53.260;6.394;2023-03-13T03:29:38;10.18;;;3.92;;
51921;SDS011;37948;53.260;6.394;2023-03-13T03:32:03;13.05;;;4.43;;
51921;SDS011;37948;53.260;6.394;2023-03-13T03:34:29;6.90;;;3.80;;
51921;SDS011;37948;53.260;6.394;2023-03-13T03:36:54;7.97;;;3.80;;
51921;SDS011;37948;53.260;6.394;2023-03-13T03:39:20;9.23;;;4.43;;
51921;SDS011;37948;53.260;6.394;2023-03-13T03:41:46;8.88;;;4.03;;
51921;SDS011;37948;53.260;6.394;2023-03-13T03:44:11;6.53;;;3.85;;
51921;SDS011;37948;53.260;6.394;2023-03-13T03:46:37;10.75;;;4.25;;
51921;SDS011;37948;53.260;6.394;2023-03-13T03:49:02;7.03;;;4.10;;
51921;SDS011;37948;53.260;6.394;2023-03-13T03:51:28;9.20;;;4.50;;
51921;SDS011;37948;53.260;6.394;2023-03-13T03:53:53;9.25;;;3.92;;
51921;SDS011;37948;53.260;6.394;2023-03-13T03:56:19;9.10;;;3.75;;
51921;SDS011;37948;53.260;6.394;2023-03-13T03:58:45;5.57;;;3.85;;
51921;SDS011;37948;53.260;6.394;2023-03-13T04:01:11;6.82;;;3.97;;
51921;SDS011;37948;53.260;6.394;2023-03-13T04:03:36;4.80;;;3.65;;
51921;SDS011;37948;53.260;6.394;2023-03-13T04:06:02;6.38;;;4.03;;
51921;SDS011;37948;53.260;6.394;2023-03-13T04:08:28;5.13;;;3.55;;
51921;SDS011;37948;53.260;6.394;2023-03-13T04:10:54;7.85;;;3.78;;
51921;SDS011;37948;53.260;6.394;2023-03-13T04:13:19;6.68;;;3.30;;
51921;SDS011;37948;53.260;6.394;2023-03-13T04:15:45;4.50;;;3.80;;
51921;SDS011;37948;53.260;6.394;2023-03-13T04:18:11;4.70;;;3.90;;
51921;SDS011;37948;53.260;6.394;2023-03-13T04:20:36;5.43;;;3.17;;
51921;SDS011;37948;53.260;6.394;2023-03-13T04:23:02;6.22;;;3.90;;
51921;SDS011;37948;53.260;6.394;2023-03-13T04:25:28;5.97;;;4.05;;
51921;SDS011;37948;53.260;6.394;2023-03-13T04:27:53;7.10;;;5.20;;
51921;SDS011;37948;53.260;6.394;2023-03-13T04:30:19;10.82;;;6.78;;
51921;SDS011;37948;53.260;6.394;2023-03-13T04:32:44;13.95;;;7.82;;
51921;SDS011;37948;53.260;6.394;2023-03-13T04:35:10;19.75;;;8.63;;
51921;SDS011;37948;53.260;6.394;2023-03-13T04:37:36;13.55;;;9.13;;
51921;SDS011;37948;53.260;6.394;2023-03-13T04:40:01;14.48;;;9.07;;
51921;SDS011;37948;53.260;6.394;2023-03-13T04:42:27;12.45;;;8.75;;
51921;SDS011;37948;53.260;6.394;2023-03-13T04:44:53;19.10;;;10.55;;
51921;SDS011;37948;53.260;6.394;2023-03-13T04:47:18;15.57;;;10.00;;
51921;SDS011;37948;53.260;6.394;2023-03-13T04:49:44;20.30;;;10.43;;
51921;SDS011;37948;53.260;6.394;2023-03-13T04:52:09;20.05;;;10.18;;
51921;SDS011;37948;53.260;6.394;2023-03-13T04:54:35;18.13;;;10.82;;
51921;SDS011;37948;53.260;6.394;2023-03-13T04:57:01;19.48;;;10.30;;
51921;SDS011;37948;53.260;6.394;2023-03-13T04:59:26;19.05;;;10.30;;
51921;SDS011;37948;53.260;6.394;2023-03-13T05:01:52;21.15;;;10.70;;
51921;SDS011;37948;53.260;6.394;2023-03-13T05:04:18;15.57;;;9.52;;
51921;SDS011;37948;53.260;6.394;2023-03-13T05:06:43;19.60;;;8.75;;
51921;SDS011;37948;53.260;6.394;2023-03-13T05:09:09;19.05;;;9.68;;
51921;SDS011;37948;53.260;6.394;2023-03-13T05:11:35;15.25;;;9.52;;
51921;SDS011;37948;53.260;6.394;2023-03-13T05:14:00;24.02;;;10.43;;
51921;SDS011;37948;53.260;6.394;2023-03-13T05:16:26;22.80;;;9.75;;
51921;SDS011;37948;53.260;6.394;2023-03-13T05:18:52;17.98;;;9.18;;
51921;SDS011;37948;53.260;6.394;2023-03-13T05:21:17;15.48;;;8.30;;
51921;SDS011;37948;53.260;6.394;2023-03-13T05:23:43;16.30;;;8.95;;
51921;SDS011;37948;53.260;6.394;2023-03-13T05:26:08;19.90;;;8.38;;
51921;SDS011;37948;53.260;6.394;2023-03-13T05:28:34;21.50;;;8.85;;
51921;SDS011;37948;53.260;6.394;2023-03-13T05:31:00;15.23;;;7.38;;
51921;SDS011;37948;53.260;6.394;2023-03-13T05:33:25;15.93;;;6.95;;
51921;SDS011;37948;53.260;6.394;2023-03-13T05:35:51;11.18;;;5.95;;
51921;SDS011;37948;53.260;6.394;2023-03-13T05:38:16;16.70;;;6.40;;
51921;SDS011;37948;53.260;6.394;2023-03-13T05:40:42;15.07;;;6.22;;
51921;SDS011;37948;53.260;6.394;2023-03-13T05:43:08;15.82;;;6.07;;
51921;SDS011;37948;53.260;6.394;2023-03-13T05:45:33;16.67;;;6.15;;
51921;SDS011;37948;53.260;6.394;2023-03-13T05:47:59;14.93;;;5.85;;
51921;SDS011;37948;53.260;6.394;2023-03-13T05:50:25;14.73;;;5.97;;
51921;SDS011;37948;53.260;6.394;2023-03-13T05:52:50;13.65;;;6.32;;
51921;SDS011;37948;53.260;6.394;2023-03-13T05:55:16;24.63;;;6.50;;
51921;SDS011;37948;53.260;6.394;2023-03-13T05:57:43;19.50;;;5.95;;
51921;SDS011;37948;53.260;6.394;2023-03-13T06:00:15;13.70;;;6.32;;
51921;SDS011;37948;53.260;6.394;2023-03-13T06:02:41;21.17;;;7.13;;
51921;SDS011;37948;53.260;6.394;2023-03-13T06:05:07;20.58;;;7.93;;
51921;SDS011;37948;53.260;6.394;2023-03-13T06:07:33;22.65;;;7.78;;
51921;SDS011;37948;53.260;6.394;2023-03-13T06:09:59;17.92;;;6.05;;
51921;SDS011;37948;53.260;6.394;2023-03-13T06:12:25;15.90;;;6.35;;
51921;SDS011;37948;53.260;6.394;2023-03-13T06:14:50;19.10;;;6.03;;
51921;SDS011;37948;53.260;6.394;2023-03-13T06:17:16;19.70;;;5.60;;
51921;SDS011;37948;53.260;6.394;2023-03-13T06:19:42;22.05;;;6.60;;
51921;SDS011;37948;53.260;6.394;2023-03-13T06:22:07;17.45;;;5.65;;
51921;SDS011;37948;53.260;6.394;2023-03-13T06:24:33;19.77;;;6.45;;
51921;SDS011;37948;53.260;6.394;2023-03-13T06:26:59;20.55;;;5.82;;
51921;SDS011;37948;53.260;6.394;2023-03-13T06:29:24;22.17;;;6.28;;
51921;SDS011;37948;53.260;6.394;2023-03-13T06:31:50;20.83;;;6.55;;
51921;SDS011;37948;53.260;6.394;2023-03-13T06:34:16;25.35;;;6.85;;
51921;SDS011;37948;53.260;6.394;2023-03-13T06:36:42;23.45;;;5.03;;
51921;SDS011;37948;53.260;6.394;2023-03-13T06:39:08;28.13;;;7.07;;
51921;SDS011;37948;53.260;6.394;2023-03-13T06:41:35;24.77;;;6.35;;
51921;SDS011;37948;53.260;6.394;2023-03-13T06:44:00;18.83;;;5.60;;
51921;SDS011;37948;53.260;6.394;2023-03-13T06:46:26;16.27;;;4.90;;
51921;SDS011;37948;53.260;6.394;2023-03-13T06:48:52;19.25;;;6.07;;
51921;SDS011;37948;53.260;6.394;2023-03-13T06:51:18;17.73;;;5.18;;
51921;SDS011;37948;53.260;6.394;2023-03-13T06:53:46;20.70;;;5.07;;
51921;SDS011;37948;53.260;6.394;2023-03-13T06:56:12;16.15;;;4.80;;
51921;SDS011;37948;53.260;6.394;2023-03-13T06:58:38;20.42;;;5.28;;
51921;SDS011;37948;53.260;6.394;2023-03-13T07:01:10;16.85;;;4.72;;
51921;SDS011;37948;53.260;6.394;2023-03-13T07:03:38;14.90;;;4.50;;
51921;SDS011;37948;53.260;6.394;2023-03-13T07:06:05;19.58;;;5.47;;
51921;SDS011;37948;53.260;6.394;2023-03-13T07:08:31;20.55;;;5.57;;
51921;SDS011;37948;53.260;6.394;2023-03-13T07:10:58;15.55;;;4.85;;
51921;SDS011;37948;53.260;6.394;2023-03-13T07:13:32;20.75;;;5.00;;
51921;SDS011;37948;53.260;6.394;2023-03-13T07:16:01;10.38;;;4.13;;
51921;SDS011;37948;53.260;6.394;2023-03-13T07:18:32;19.20;;;4.97;;
51921;SDS011;37948;53.260;6.394;2023-03-13T07:20:59;23.20;;;5.20;;
51921;SDS011;37948;53.260;6.394;2023-03-13T07:23:26;16.05;;;5.22;;
51921;SDS011;37948;53.260;6.394;2023-03-13T07:25:53;22.00;;;5.15;;
51921;SDS011;37948;53.260;6.394;2023-03-13T07:28:21;18.10;;;4.63;;
51921;SDS011;37948;53.260;6.394;2023-03-13T07:30:47;16.33;;;4.57;;
51921;SDS011;37948;53.260;6.394;2023-03-13T07:33:13;14.45;;;4.55;;
51921;SDS011;37948;53.260;6.394;2023-03-13T07:35:39;13.65;;;3.60;;
51921;SDS011;37948;53.260;6.394;2023-03-13T07:38:05;15.93;;;4.05;;
51921;SDS011;37948;53.260;6.394;2023-03-13T07:40:30;16.85;;;5.13;;
51921;SDS011;37948;53.260;6.394;2023-03-13T07:42:56;20.23;;;5.60;;
51921;SDS011;37948;53.260;6.394;2023-03-13T07:45:21;15.30;;;4.90;;
51921;SDS011;37948;53.260;6.394;2023-03-13T07:47:47;13.98;;;4.28;;
51921;SDS011;37948;53.260;6.394;2023-03-13T07:50:12;11.93;;;3.97;;
51921;SDS011;37948;53.260;6.394;2023-03-13T07:52:38;15.43;;;4.40;;
51921;SDS011;37948;53.260;6.394;2023-03-13T07:55:04;9.40;;;3.38;;
51921;SDS011;37948;53.260;6.394;2023-03-13T07:57:29;13.05;;;4.00;;
51921;SDS011;37948;53.260;6.394;2023-03-13T07:59:55;16.77;;;4.07;;
51921;SDS011;37948;53.260;6.394;2023-03-13T08:02:21;13.35;;;3.80;;
51921;SDS011;37948;53.260;6.394;2023-03-13T08:04:48;14.73;;;4.00;;
51921;SDS011;37948;53.260;6.394;2023-03-13T08:07:16;19.80;;;3.83;;
51921;SDS011;37948;53.260;6.394;2023-03-13T08:09:41;12.43;;;4.05;;
51921;SDS011;37948;53.260;6.394;2023-03-13T08:12:07;11.88;;;3.47;;
51921;SDS011;37948;53.260;6.394;2023-03-13T08:14:33;7.60;;;2.88;;
51921;SDS011;37948;53.260;6.394;2023-03-13T08:16:59;7.35;;;3.10;;
51921;SDS011;37948;53.260;6.394;2023-03-13T08:19:24;9.43;;;3.25;;
51921;SDS011;37948;53.260;6.394;2023-03-13T08:21:50;13.05;;;3.85;;
51921;SDS011;37948;53.260;6.394;2023-03-13T08:24:16;6.57;;;2.63;;
51921;SDS011;37948;53.260;6.394;2023-03-13T08:26:41;11.73;;;3.63;;
51921;SDS011;37948;53.260;6.394;2023-03-13T08:29:11;6.90;;;2.20;;
51921;SDS011;37948;53.260;6.394;2023-03-13T08:31:45;7.28;;;2.90;;
51921;SDS011;37948;53.260;6.394;2023-03-13T08:34:12;7.78;;;2.53;;
51921;SDS011;37948;53.260;6.394;2023-03-13T08:36:39;7.07;;;2.47;;
51921;SDS011;37948;53.260;6.394;2023-03-13T08:39:09;7.50;;;2.40;;
51921;SDS011;37948;53.260;6.394;2023-03-13T08:41:37;9.27;;;3.03;;
51921;SDS011;37948;53.260;6.394;2023-03-13T08:44:04;9.93;;;2.72;;
51921;SDS011;37948;53.260;6.394;2023-03-13T08:46:31;11.52;;;3.05;;
51921;SDS011;37948;53.260;6.394;2023-03-13T08:48:59;9.75;;;3.15;;
51921;SDS011;37948;53.260;6.394;2023-03-13T08:51:26;7.70;;;2.20;;
51921;SDS011;37948;53.260;6.394;2023-03-13T08:53:53;10.43;;;2.78;;
51921;SDS011;37948;53.260;6.394;2023-03-13T08:56:23;7.15;;;2.22;;
51921;SDS011;37948;53.260;6.394;2023-03-13T08:58:51;7.50;;;2.22;;
51921;SDS011;37948;53.260;6.394;2023-03-13T09:01:19;8.20;;;2.40;;
51921;SDS011;37948;53.260;6.394;2023-03-13T09:03:45;10.52;;;2.53;;
51921;SDS011;37948;53.260;6.394;2023-03-13T09:06:11;4.70;;;2.03;;
51921;SDS011;37948;53.260;6.394;2023-03-13T09:08:37;7.32;;;2.15;;
51921;SDS011;37948;53.260;6.394;2023-03-13T09:11:05;6.35;;;2.22;;
51921;SDS011;37948;53.260;6.394;2023-03-13T09:13:36;6.03;;;1.90;;
51921;SDS011;37948;53.260;6.394;2023-03-13T09:16:13;13.85;;;2.03;;
51921;SDS011;37948;53.260;6.394;2023-03-13T09:18:44;4.85;;;1.80;;
51921;SDS011;37948;53.260;6.394;2023-03-13T09:21:17;10.20;;;2.42;;
51921;SDS011;37948;53.260;6.394;2023-03-13T09:23:47;8.25;;;1.67;;
51921;SDS011;37948;53.260;6.394;2023-03-13T09:26:14;10.93;;;1.90;;
51921;SDS011;37948;53.260;6.394;2023-03-13T09:28:41;12.00;;;2.88;;
51921;SDS011;37948;53.260;6.394;2023-03-13T09:33:33;7.47;;;2.25;;
51921;SDS011;37948;53.260;6.394;2023-03-13T09:35:58;16.95;;;2.97;;
51921;SDS011;37948;53.260;6.394;2023-03-13T09:38:24;7.68;;;2.08;;
51921;SDS011;37948;53.260;6.394;2023-03-13T09:40:50;11.13;;;2.45;;
51921;SDS011;37948;53.260;6.394;2023-03-13T09:45:49;8.05;;;2.65;;
51921;SDS011;37948;53.260;6.394;2023-03-13T09:48:30;11.50;;;2.33;;
51921;SDS011;37948;53.260;6.394;2023-03-13T09:53:42;19.27;;;3.65;;
51921;SDS011;37948;53.260;6.394;2023-03-13T09:56:17;10.75;;;3.08;;
51921;SDS011;37948;53.260;6.394;2023-03-13T09:58:51;11.52;;;3.10;;
51921;SDS011;37948;53.260;6.394;2023-03-13T10:01:20;22.48;;;3.72;;
51921;SDS011;37948;53.260;6.394;2023-03-13T10:06:24;17.05;;;3.47;;
51921;SDS011;37948;53.260;6.394;2023-03-13T10:08:54;12.15;;;3.00;;
51921;SDS011;37948;53.260;6.394;2023-03-13T10:14:10;18.98;;;4.13;;
51921;SDS011;37948;53.260;6.394;2023-03-13T10:16:43;12.60;;;2.50;;
51921;SDS011;37948;53.260;6.394;2023-03-13T10:19:16;13.80;;;3.28;;
51921;SDS011;37948;53.260;6.394;2023-03-13T10:21:47;14.38;;;3.40;;
51921;SDS011;37948;53.260;6.394;2023-03-13T10:24:18;12.32;;;3.22;;
51921;SDS011;37948;53.260;6.394;2023-03-13T10:27:09;20.02;;;3.05;;
51921;SDS011;37948;53.260;6.394;2023-03-13T10:29:37;15.98;;;3.75;;
51921;SDS011;37948;53.260;6.394;2023-03-13T10:32:05;15.85;;;3.13;;
51921;SDS011;37948;53.260;6.394;2023-03-13T10:37:26;20.60;;;4.18;;
51921;SDS011;37948;53.260;6.394;2023-03-13T10:40:10;19.10;;;4.47;;
51921;SDS011;37948;53.260;6.394;2023-03-13T10:42:42;21.17;;;4.18;;
51921;SDS011;37948;53.260;6.394;2023-03-13T10:45:12;22.27;;;4.25;;
51921;SDS011;37948;53.260;6.394;2023-03-13T10:47:40;26.38;;;4.95;;
51921;SDS011;37948;53.260;6.394;2023-03-13T10:50:05;20.85;;;4.00;;
51921;SDS011;37948;53.260;6.394;2023-03-13T10:55:12;24.95;;;4.38;;
51921;SDS011;37948;53.260;6.394;2023-03-13T10:57:42;21.70;;;4.40;;
51921;SDS011;37948;53.260;6.394;2023-03-13T11:00:28;19.65;;;4.75;;
51921;SDS011;37948;53.260;6.394;2023-03-13T11:03:04;25.33;;;4.38;;
51921;SDS011;37948;53.260;6.394;2023-03-13T11:05:45;14.23;;;3.25;;
51921;SDS011;37948;53.260;6.394;2023-03-13T11:08:24;25.92;;;4.47;;
51921;SDS011;37948;53.260;6.394;2023-03-13T11:10:52;19.50;;;4.05;;
51921;SDS011;37948;53.260;6.394;2023-03-13T11:13:40;18.80;;;3.33;;
51921;SDS011;37948;53.260;6.394;2023-03-13T11:18:51;11.55;;;3.65;;
51921;SDS011;37948;53.260;6.394;2023-03-13T11:21:55;18.52;;;4.35;;
51921;SDS011;37948;53.260;6.394;2023-03-13T11:24:43;16.50;;;3.28;;
51921;SDS011;37948;53.260;6.394;2023-03-13T11:27:34;14.75;;;3.55;;
51921;SDS011;37948;53.260;6.394;2023-03-13T11:30:26;15.93;;;3.72;;
51921;SDS011;37948;53.260;6.394;2023-03-13T11:33:17;14.02;;;2.97;;
51921;SDS011;37948;53.260;6.394;2023-03-13T11:36:08;14.35;;;2.45;;
51921;SDS011;37948;53.260;6.394;2023-03-13T11:38:54;14.05;;;3.30;;
51921;SDS011;37948;53.260;6.394;2023-03-13T11:41:42;16.95;;;3.65;;
51921;SDS011;37948;53.260;6.394;2023-03-13T12:00:40;13.60;;;3.17;;
51921;SDS011;37948;53.260;6.394;2023-03-13T12:03:16;18.77;;;3.38;;
51921;SDS011;37948;53.260;6.394;2023-03-13T12:05:52;16.98;;;3.88;;
51921;SDS011;37948;53.260;6.394;2023-03-13T12:11:17;15.32;;;4.30;;
51921;SDS011;37948;53.260;6.394;2023-03-13T12:16:22;25.25;;;3.65;;
51921;SDS011;37948;53.260;6.394;2023-03-13T12:18:55;21.58;;;3.67;;
51921;SDS011;37948;53.260;6.394;2023-03-13T12:21:22;18.83;;;4.05;;
51921;SDS011;37948;53.260;6.394;2023-03-13T12:27:20;24.17;;;4.95;;
51921;SDS011;37948;53.260;6.394;2023-03-13T12:33:01;19.70;;;5.32;;
51921;SDS011;37948;53.260;6.394;2023-03-13T12:35:45;20.50;;;4.60;;
51921;SDS011;37948;53.260;6.394;2023-03-13T12:44:00;24.83;;;3.95;;
51921;SDS011;37948;53.260;6.394;2023-03-13T12:55:17;21.10;;;4.13;;
51921;SDS011;37948;53.260;6.394;2023-03-13T12:58:41;16.42;;;4.28;;
51921;SDS011;37948;53.260;6.394;2023-03-13T13:00:49;18.40;;;4.68;;
51921;SDS011;37948;53.260;6.394;2023-03-13T13:16:45;22.10;;;6.10;;
51921;SDS011;37948;53.260;6.394;2023-03-13T13:24:56;23.20;;;6.05;;
51921;SDS011;37948;53.260;6.394;2023-03-13T13:30:00;25.40;;;5.78;;
51921;SDS011;37948;53.260;6.394;2023-03-13T13:32:47;30.48;;;5.53;;
51921;SDS011;37948;53.260;6.394;2023-03-13T13:41:03;21.33;;;4.50;;
51921;SDS011;37948;53.260;6.394;2023-03-13T13:43:37;23.50;;;5.07;;
51921;SDS011;37948;53.260;6.394;2023-03-13T13:46:26;25.45;;;4.68;;
51921;SDS011;37948;53.260;6.394;2023-03-13T13:51:35;31.67;;;6.82;;
51921;SDS011;37948;53.260;6.394;2023-03-13T13:56:58;25.92;;;4.38;;
51921;SDS011;37948;53.260;6.394;2023-03-13T13:59:41;24.63;;;5.13;;
51921;SDS011;37948;53.260;6.394;2023-03-13T14:04:35;14.75;;;4.32;;
51921;SDS011;37948;53.260;6.394;2023-03-13T14:07:14;30.00;;;5.15;;
51921;SDS011;37948;53.260;6.394;2023-03-13T14:13:00;25.20;;;5.43;;
51921;SDS011;37948;53.260;6.394;2023-03-13T14:15:30;16.77;;;4.43;;
51921;SDS011;37948;53.260;6.394;2023-03-13T14:17:58;28.02;;;5.40;;
51921;SDS011;37948;53.260;6.394;2023-03-13T14:20:34;34.53;;;6.70;;
51921;SDS011;37948;53.260;6.394;2023-03-13T14:23:05;20.80;;;5.32;;
51921;SDS011;37948;53.260;6.394;2023-03-13T14:25:39;25.42;;;4.95;;
51921;SDS011;37948;53.260;6.394;2023-03-13T14:28:13;21.63;;;4.65;;
51921;SDS011;37948;53.260;6.394;2023-03-13T14:30:51;29.75;;;7.13;;
51921;SDS011;37948;53.260;6.394;2023-03-13T14:33:19;31.92;;;6.70;;
51921;SDS011;37948;53.260;6.394;2023-03-13T14:35:45;21.25;;;4.97;;
51921;SDS011;37948;53.260;6.394;2023-03-13T14:38:22;29.02;;;4.85;;
51921;SDS011;37948;53.260;6.394;2023-03-13T14:40:50;20.85;;;4.93;;
51921;SDS011;37948;53.260;6.394;2023-03-13T14:45:42;26.83;;;6.22;;
51921;SDS011;37948;53.260;6.394;2023-03-13T14:48:18;27.52;;;4.93;;
51921;SDS011;37948;53.260;6.394;2023-03-13T14:50:53;24.52;;;5.80;;
51921;SDS011;37948;53.260;6.394;2023-03-13T14:53:52;22.10;;;5.25;;
51921;SDS011;37948;53.260;6.394;2023-03-13T14:56:30;33.30;;;5.65;;
51921;SDS011;37948;53.260;6.394;2023-03-13T14:59:05;26.50;;;5.43;;
51921;SDS011;37948;53.260;6.394;2023-03-13T15:01:56;28.73;;;5.53;;
51921;SDS011;37948;53.260;6.394;2023-03-13T15:07:20;25.38;;;5.38;;
51921;SDS011;37948;53.260;6.394;2023-03-13T15:09:47;28.35;;;5.90;;
51921;SDS011;37948;53.260;6.394;2023-03-13T15:12:18;27.58;;;5.85;;
51921;SDS011;37948;53.260;6.394;2023-03-13T15:14:47;46.28;;;7.22;;
51921;SDS011;37948;53.260;6.394;2023-03-13T15:17:15;29.15;;;6.15;;
51921;SDS011;37948;53.260;6.394;2023-03-13T15:19:50;29.63;;;6.40;;
51921;SDS011;37948;53.260;6.394;2023-03-13T15:22:23;26.85;;;5.70;;
51921;SDS011;37948;53.260;6.394;2023-03-13T15:24:54;27.48;;;5.68;;
51921;SDS011;37948;53.260;6.394;2023-03-13T15:27:21;29.75;;;5.57;;
51921;SDS011;37948;53.260;6.394;2023-03-13T15:29:48;25.15;;;5.18;;
51921;SDS011;37948;53.260;6.394;2023-03-13T15:32:28;29.70;;;5.78;;
51921;SDS011;37948;53.260;6.394;2023-03-13T15:34:56;20.77;;;4.90;;
51921;SDS011;37948;53.260;6.394;2023-03-13T15:37:23;27.98;;;4.93;;
51921;SDS011;37948;53.260;6.394;2023-03-13T15:39:50;23.77;;;4.90;;
51921;SDS011;37948;53.260;6.394;2023-03-13T15:42:15;26.20;;;5.95;;
51921;SDS011;37948;53.260;6.394;2023-03-13T15:44:41;20.75;;;5.15;;
51921;SDS011;37948;53.260;6.394;2023-03-13T15:47:13;25.88;;;5.80;;
51921;SDS011;37948;53.260;6.394;2023-03-13T15:49:43;27.15;;;5.53;;
51921;SDS011;37948;53.260;6.394;2023-03-13T15:52:13;22.15;;;6.03;;
51921;SDS011;37948;53.260;6.394;2023-03-13T15:54:48;31.38;;;5.53;;
51921;SDS011;37948;53.260;6.394;2023-03-13T15:57:15;24.95;;;6.03;;
51921;SDS011;37948;53.260;6.394;2023-03-13T15:59:42;24.90;;;5.35;;
51921;SDS011;37948;53.260;6.394;2023-03-13T16:02:16;26.88;;;5.82;;
51921;SDS011;37948;53.260;6.394;2023-03-13T16:04:43;36.53;;;5.78;;
51921;SDS011;37948;53.260;6.394;2023-03-13T16:07:10;22.73;;;5.75;;
51921;SDS011;37948;53.260;6.394;2023-03-13T16:09:37;33.85;;;5.60;;
51921;SDS011;37948;53.260;6.394;2023-03-13T16:12:07;25.42;;;5.20;;
51921;SDS011;37948;53.260;6.394;2023-03-13T16:14:33;20.17;;;5.43;;
51921;SDS011;37948;53.260;6.394;2023-03-13T16:17:00;28.52;;;5.85;;
51921;SDS011;37948;53.260;6.394;2023-03-13T16:19:28;35.17;;;5.88;;
51921;SDS011;37948;53.260;6.394;2023-03-13T16:21:54;26.13;;;5.00;;
51921;SDS011;37948;53.260;6.394;2023-03-13T16:24:20;33.35;;;6.20;;
51921;SDS011;37948;53.260;6.394;2023-03-13T16:26:45;28.65;;;5.20;;
51921;SDS011;37948;53.260;6.394;2023-03-13T16:29:12;29.10;;;6.32;;
51921;SDS011;37948;53.260;6.394;2023-03-13T16:31:39;29.33;;;6.82;;
51921;SDS011;37948;53.260;6.394;2023-03-13T16:34:05;29.17;;;5.57;;
51921;SDS011;37948;53.260;6.394;2023-03-13T16:36:33;32.67;;;6.00;;
51921;SDS011;37948;53.260;6.394;2023-03-13T16:39:00;32.15;;;5.20;;
51921;SDS011;37948;53.260;6.394;2023-03-13T16:41:27;29.02;;;6.38;;